createdAt,value
2024-04-24T00:00:32.116Z,100
2024-04-24T00:05:32.120Z,100
2024-04-24T00:10:32.124Z,100
2024-04-24T00:15:32.112Z,100
2024-04-24T00:20:32.109Z,100
2024-04-24T00:25:32.109Z,100
2024-04-24T00:30:32.115Z,100
2024-04-24T00:35:32.115Z,100
2024-04-24T00:40:32.116Z,100
2024-04-24T00:45:32.117Z,100
2024-04-24T00:50:32.139Z,100
2024-04-24T00:55:32.118Z,100
2024-04-24T01:00:32.093Z,100
2024-04-24T01:05:32.128Z,100
2024-04-24T01:10:32.112Z,100
2024-04-24T01:15:32.112Z,100
2024-04-24T01:20:32.114Z,100
2024-04-24T01:25:32.195Z,100
2024-04-24T01:30:32.265Z,100
2024-04-24T01:35:32.205Z,100
2024-04-24T01:40:32.097Z,100
2024-04-24T01:45:32.117Z,100
2024-04-24T01:50:32.103Z,100
2024-04-24T01:55:32.103Z,100
2024-04-24T02:00:32.146Z,100
2024-04-24T02:05:32.144Z,100
2024-04-24T02:10:32.111Z,100
2024-04-24T02:15:32.122Z,100
2024-04-24T02:20:32.133Z,100
2024-04-24T02:25:32.108Z,100
2024-04-24T02:30:32.123Z,100
2024-04-24T02:35:32.130Z,100
2024-04-24T02:40:32.115Z,100
2024-04-24T02:45:32.129Z,100
2024-04-24T02:50:32.133Z,100
2024-04-24T02:55:32.122Z,100
2024-04-24T02:58:39.063Z,99.9
2024-04-24T02:59:39.042Z,99.7
2024-04-24T03:00:32.155Z,99.7
2024-04-24T03:00:39.026Z,100
2024-04-24T03:05:32.118Z,100
2024-04-24T03:10:32.127Z,100
2024-04-24T03:15:32.123Z,100
2024-04-24T03:20:32.161Z,100
2024-04-24T03:25:32.123Z,100
2024-04-24T03:30:32.136Z,100
2024-04-24T03:35:32.136Z,100
2024-04-24T03:40:32.129Z,100
2024-04-24T03:45:32.129Z,100
2024-04-24T03:50:32.155Z,100
2024-04-24T03:55:32.119Z,100
2024-04-24T04:00:32.128Z,100
2024-04-24T04:05:32.138Z,100
2024-04-24T04:09:39.256Z,99.8
2024-04-24T04:10:32.135Z,99.8
2024-04-24T04:10:39.260Z,99.9
2024-04-24T04:12:39.250Z,99.8
2024-04-24T04:13:39.248Z,100
2024-04-24T04:15:32.163Z,100
2024-04-24T04:20:32.162Z,100
2024-04-24T04:20:39.304Z,99.4
2024-04-24T04:21:39.278Z,99.1
2024-04-24T04:22:41.764Z,99.3
2024-04-24T04:24:39.324Z,97.9
2024-04-24T04:25:32.130Z,97.9
2024-04-24T04:25:39.274Z,97.3
2024-04-24T04:26:39.284Z,98.6
2024-04-24T04:27:39.283Z,97.8
2024-04-24T04:28:39.331Z,98.7
2024-04-24T04:29:39.290Z,98.4
2024-04-24T04:30:32.134Z,98.4
2024-04-24T04:30:39.265Z,98.1
2024-04-24T04:32:39.375Z,97.8
2024-04-24T04:33:39.339Z,98.3
2024-04-24T04:34:39.319Z,98.8
2024-04-24T04:35:32.157Z,98.8
2024-04-24T04:35:39.316Z,98.2
2024-04-24T04:36:39.310Z,99.1
2024-04-24T04:37:39.725Z,99.6
2024-04-24T04:38:39.332Z,99.4
2024-04-24T04:39:39.352Z,98.6
2024-04-24T04:40:32.127Z,98.6
2024-04-24T04:41:39.301Z,97.6
2024-04-24T04:43:39.283Z,97.7
2024-04-24T04:44:39.307Z,97.9
2024-04-24T04:45:32.136Z,97.9
2024-04-24T04:45:39.297Z,97.8
2024-04-24T04:46:39.335Z,98.3
2024-04-24T04:47:39.449Z,97.6
2024-04-24T04:48:39.386Z,97.3
2024-04-24T04:49:39.346Z,96
2024-04-24T04:50:32.140Z,96
2024-04-24T04:50:39.310Z,95.7
2024-04-24T04:51:39.364Z,95.2
2024-04-24T04:52:39.329Z,93.9
2024-04-24T04:53:39.326Z,94
2024-04-24T04:54:39.385Z,94.3
2024-04-24T04:55:32.160Z,94.3
2024-04-24T04:55:39.368Z,93.7
2024-04-24T04:57:39.365Z,92.5
2024-04-24T04:58:39.366Z,91.9
2024-04-24T04:59:39.399Z,91.3
2024-04-24T05:00:32.147Z,91.3
2024-04-24T05:01:39.797Z,91.6
2024-04-24T05:02:39.442Z,91
2024-04-24T05:03:39.340Z,91.3
2024-04-24T05:04:39.693Z,90.3
2024-04-24T05:05:32.162Z,90.3
2024-04-24T05:06:39.396Z,91.1
2024-04-24T05:07:39.369Z,90.8
2024-04-24T05:08:39.382Z,90.3
2024-04-24T05:09:39.440Z,91.1
2024-04-24T05:10:32.136Z,91.1
2024-04-24T05:11:39.465Z,89.5
2024-04-24T05:12:39.412Z,88.7
2024-04-24T05:14:39.418Z,88.1
2024-04-24T05:15:32.132Z,88.1
2024-04-24T05:15:39.388Z,88.4
2024-04-24T05:16:39.434Z,87.7
2024-04-24T05:17:42.189Z,87.2
2024-04-24T05:18:39.521Z,87.3
2024-04-24T05:19:39.387Z,87.4
2024-04-24T05:20:32.178Z,87.4
2024-04-24T05:20:39.410Z,87.1
2024-04-24T05:21:39.456Z,87
2024-04-24T05:22:39.434Z,87.5
2024-04-24T05:23:39.461Z,87.7
2024-04-24T05:24:39.449Z,87
2024-04-24T05:25:32.140Z,87
2024-04-24T05:26:39.462Z,86.1
2024-04-24T05:27:39.447Z,86.2
2024-04-24T05:28:39.471Z,84.7
2024-04-24T05:29:39.459Z,84.1
2024-04-24T05:30:32.139Z,84.1
2024-04-24T05:30:39.437Z,84.4
2024-04-24T05:31:39.576Z,84.1
2024-04-24T05:32:39.547Z,84.9
2024-04-24T05:33:39.554Z,84.4
2024-04-24T05:35:32.199Z,84.4
2024-04-24T05:35:39.467Z,83.5
2024-04-24T05:36:39.480Z,83.4
2024-04-24T05:37:39.475Z,83.1
2024-04-24T05:38:39.471Z,82.9
2024-04-24T05:39:39.503Z,83.1
2024-04-24T05:40:32.124Z,83.1
2024-04-24T05:40:39.512Z,82.5
2024-04-24T05:41:39.509Z,82.3
2024-04-24T05:42:39.475Z,81.8
2024-04-24T05:43:39.519Z,82
2024-04-24T05:44:39.513Z,82.7
2024-04-24T05:45:32.142Z,82.7
2024-04-24T05:45:39.525Z,82.3
2024-04-24T05:46:39.477Z,82.6
2024-04-24T05:47:39.584Z,81.3
2024-04-24T05:48:39.559Z,80.5
2024-04-24T05:49:39.510Z,80.4
2024-04-24T05:50:32.176Z,80.4
2024-04-24T05:50:39.507Z,81.9
2024-04-24T05:51:39.521Z,81.5
2024-04-24T05:52:39.541Z,80.4
2024-04-24T05:53:39.562Z,80
2024-04-24T05:54:39.492Z,79.8
2024-04-24T05:55:32.161Z,79.8
2024-04-24T05:55:39.492Z,80.2
2024-04-24T05:56:39.537Z,80.4
2024-04-24T05:57:39.549Z,80.2
2024-04-24T05:58:39.590Z,80.4
2024-04-24T05:59:39.552Z,80.3
2024-04-24T06:00:32.140Z,80.3
2024-04-24T06:00:39.573Z,78.7
2024-04-24T06:01:41.009Z,78.4
2024-04-24T06:02:39.581Z,78.1
2024-04-24T06:03:39.553Z,78.8
2024-04-24T06:04:39.600Z,79.4
2024-04-24T06:05:32.155Z,79.4
2024-04-24T06:05:39.586Z,78
2024-04-24T06:06:39.573Z,78.6
2024-04-24T06:07:39.635Z,78.1
2024-04-24T06:08:39.562Z,77.5
2024-04-24T06:09:39.588Z,79.4
2024-04-24T06:10:32.157Z,79.4
2024-04-24T06:11:39.606Z,76.7
2024-04-24T06:13:39.568Z,77.2
2024-04-24T06:14:39.569Z,76.9
2024-04-24T06:15:34.246Z,76.9
2024-04-24T06:15:39.549Z,76.6
2024-04-24T06:16:39.579Z,76.8
2024-04-24T06:17:39.619Z,75.5
2024-04-24T06:18:39.657Z,75.6
2024-04-24T06:19:39.551Z,75.5
2024-04-24T06:20:32.172Z,75.5
2024-04-24T06:20:39.596Z,76.8
2024-04-24T06:21:39.592Z,77.1
2024-04-24T06:22:39.618Z,78
2024-04-24T06:23:39.571Z,78.3
2024-04-24T06:24:39.602Z,80.2
2024-04-24T06:25:32.150Z,80.2
2024-04-24T06:25:39.567Z,80.9
2024-04-24T06:26:41.029Z,81.1
2024-04-24T06:27:39.658Z,81.4
2024-04-24T06:28:39.660Z,83
2024-04-24T06:29:39.641Z,81.7
2024-04-24T06:30:32.160Z,81.7
2024-04-24T06:30:39.661Z,78.7
2024-04-24T06:31:39.662Z,76.4
2024-04-24T06:32:39.831Z,75.5
2024-04-24T06:33:39.695Z,73.7
2024-04-24T06:34:39.685Z,72.4
2024-04-24T06:35:34.374Z,72.4
2024-04-24T06:35:39.724Z,73.4
2024-04-24T06:36:39.658Z,71.7
2024-04-24T06:37:39.642Z,71.4
2024-04-24T06:38:39.641Z,72.7
2024-04-24T06:39:39.654Z,73.7
2024-04-24T06:40:32.139Z,73.7
2024-04-24T06:40:40.263Z,73.3
2024-04-24T06:41:39.651Z,73.1
2024-04-24T06:42:39.659Z,71.9
2024-04-24T06:43:39.711Z,72.5
2024-04-24T06:44:39.674Z,72.4
2024-04-24T06:45:32.145Z,72.4
2024-04-24T06:45:39.680Z,71.7
2024-04-24T06:46:39.696Z,71.8
2024-04-24T06:48:39.704Z,72.4
2024-04-24T06:49:39.661Z,72.3
2024-04-24T06:50:32.145Z,72.3
2024-04-24T06:50:39.711Z,72.4
2024-04-24T06:51:39.677Z,72.8
2024-04-24T06:52:39.666Z,72.3
2024-04-24T06:53:39.676Z,72.4
2024-04-24T06:54:39.711Z,71.4
2024-04-24T06:55:32.135Z,71.4
2024-04-24T06:56:39.738Z,70.5
2024-04-24T06:57:39.689Z,70.7
2024-04-24T06:58:39.724Z,70.1
2024-04-24T06:59:39.720Z,70.7
2024-04-24T07:00:32.137Z,70.7
2024-04-24T07:00:39.807Z,71.8
2024-04-24T07:01:39.772Z,73.6
2024-04-24T07:02:39.798Z,72.6
2024-04-24T07:03:39.784Z,71.4
2024-04-24T07:04:39.766Z,72
2024-04-24T07:05:32.157Z,72
2024-04-24T07:05:39.745Z,71.3
2024-04-24T07:06:39.711Z,71.2
2024-04-24T07:07:39.726Z,71.3
2024-04-24T07:08:39.762Z,71.7
2024-04-24T07:09:40.005Z,73.2
2024-04-24T07:10:32.143Z,73.2
2024-04-24T07:11:39.800Z,72
2024-04-24T07:13:39.758Z,71.4
2024-04-24T07:14:39.732Z,70.5
2024-04-24T07:15:32.140Z,70.5
2024-04-24T07:15:39.766Z,72.3
2024-04-24T07:16:39.778Z,73.3
2024-04-24T07:17:39.818Z,73.4
2024-04-24T07:18:39.804Z,66.7
2024-04-24T07:19:39.747Z,68.6
2024-04-24T07:20:32.213Z,68.6
2024-04-24T07:20:39.769Z,69.3
2024-04-24T07:21:39.731Z,69
2024-04-24T07:22:39.762Z,70.8
2024-04-24T07:23:39.780Z,70.2
2024-04-24T07:24:39.799Z,71
2024-04-24T07:25:32.146Z,71
2024-04-24T07:25:39.745Z,69.7
2024-04-24T07:26:39.803Z,68.9
2024-04-24T07:27:39.823Z,71
2024-04-24T07:28:39.796Z,70.7
2024-04-24T07:29:39.814Z,69.1
2024-04-24T07:30:32.141Z,69.1
2024-04-24T07:31:39.798Z,69.5
2024-04-24T07:32:39.871Z,69.2
2024-04-24T07:33:39.841Z,69.4
2024-04-24T07:34:39.830Z,69.3
2024-04-24T07:35:32.232Z,69.3
2024-04-24T07:35:39.832Z,68.3
2024-04-24T07:36:39.786Z,68.4
2024-04-24T07:37:39.807Z,68.7
2024-04-24T07:38:39.830Z,67.7
2024-04-24T07:39:39.847Z,68.2
2024-04-24T07:40:32.151Z,68.2
2024-04-24T07:40:42.811Z,68.1
2024-04-24T07:41:41.709Z,68.2
2024-04-24T07:42:39.818Z,68.5
2024-04-24T07:44:39.846Z,69
2024-04-24T07:45:32.189Z,69
2024-04-24T07:45:39.835Z,68.8
2024-04-24T07:46:39.854Z,70
2024-04-24T07:47:39.944Z,70.3
2024-04-24T07:48:39.931Z,71.6
2024-04-24T07:49:39.843Z,70.6
2024-04-24T07:50:32.221Z,70.6
2024-04-24T07:50:39.998Z,71.5
2024-04-24T07:51:39.828Z,71.9
2024-04-24T07:52:39.862Z,73.5
2024-04-24T07:53:39.915Z,74.4
2024-04-24T07:54:39.898Z,76.2
2024-04-24T07:55:32.156Z,76.2
2024-04-24T07:55:39.888Z,77.2
2024-04-24T07:56:39.908Z,78.2
2024-04-24T07:57:39.898Z,79.7
2024-04-24T07:58:39.871Z,80.5
2024-04-24T07:59:39.860Z,81.5
2024-04-24T08:00:32.200Z,81.5
2024-04-24T08:01:39.890Z,81.4
2024-04-24T08:02:40.635Z,81.5
2024-04-24T08:03:40.025Z,81
2024-04-24T08:04:39.876Z,81.4
2024-04-24T08:05:32.286Z,81.4
2024-04-24T08:05:39.955Z,83.6
2024-04-24T08:06:39.900Z,81.9
2024-04-24T08:07:40.709Z,82.3
2024-04-24T08:08:39.897Z,82.4
2024-04-24T08:09:39.913Z,81.9
2024-04-24T08:10:32.161Z,81.9
2024-04-24T08:10:39.918Z,80.5
2024-04-24T08:11:40.049Z,79.5
2024-04-24T08:12:39.922Z,79.9
2024-04-24T08:13:39.969Z,79.4
2024-04-24T08:14:39.958Z,77.1
2024-04-24T08:15:32.155Z,77.1
2024-04-24T08:16:40.050Z,78.9
2024-04-24T08:17:39.952Z,77.3
2024-04-24T08:18:39.924Z,77.4
2024-04-24T08:19:39.924Z,77.3
2024-04-24T08:20:32.204Z,77.3
2024-04-24T08:20:40.005Z,76.5
2024-04-24T08:21:39.962Z,75.6
2024-04-24T08:22:39.928Z,74.1
2024-04-24T08:23:39.986Z,73.9
2024-04-24T08:24:39.988Z,74.7
2024-04-24T08:25:32.177Z,74.7
2024-04-24T08:26:39.968Z,74.8
2024-04-24T08:27:39.974Z,75.3
2024-04-24T08:28:40.887Z,75.1
2024-04-24T08:29:40.023Z,76.1
2024-04-24T08:30:32.159Z,76.1
2024-04-24T08:30:39.971Z,75.8
2024-04-24T08:31:39.988Z,75
2024-04-24T08:32:40.044Z,75.2
2024-04-24T08:33:42.050Z,75
2024-04-24T08:34:41.971Z,75.2
2024-04-24T08:35:32.164Z,75.2
2024-04-24T08:35:39.958Z,74.9
2024-04-24T08:37:39.954Z,74.2
2024-04-24T08:39:40.028Z,74.6
2024-04-24T08:40:32.169Z,74.6
2024-04-24T08:40:39.956Z,73.7
2024-04-24T08:41:39.968Z,73.8
2024-04-24T08:42:40.026Z,74.1
2024-04-24T08:44:40.040Z,74.3
2024-04-24T08:45:32.199Z,74.3
2024-04-24T08:45:40.040Z,73.4
2024-04-24T08:47:40.058Z,73.8
2024-04-24T08:48:40.109Z,72.9
2024-04-24T08:49:41.887Z,72.3
2024-04-24T08:50:32.200Z,72.3
2024-04-24T08:50:40.023Z,72.7
2024-04-24T08:51:40.003Z,72.9
2024-04-24T08:52:39.998Z,72.8
2024-04-24T08:53:40.032Z,72.2
2024-04-24T08:54:40.034Z,72.7
2024-04-24T08:55:32.159Z,72.7
2024-04-24T08:55:40.056Z,73
2024-04-24T08:56:40.070Z,72.6
2024-04-24T08:57:40.028Z,72.7
2024-04-24T08:58:40.042Z,72.9
2024-04-24T08:59:40.017Z,73.3
2024-04-24T09:00:32.184Z,73.3
2024-04-24T09:00:40.052Z,72.9
2024-04-24T09:02:40.099Z,73.3
2024-04-24T09:03:40.139Z,73
2024-04-24T09:04:40.113Z,73.6
2024-04-24T09:05:32.177Z,73.6
2024-04-24T09:05:40.123Z,73.3
2024-04-24T09:06:40.082Z,74.5
2024-04-24T09:07:40.075Z,74.6
2024-04-24T09:08:40.055Z,74.7
2024-04-24T09:09:40.051Z,74.8
2024-04-24T09:10:32.184Z,74.8
2024-04-24T09:10:40.109Z,75.1
2024-04-24T09:11:40.164Z,76.3
2024-04-24T09:12:40.059Z,76.6
2024-04-24T09:13:40.115Z,76
2024-04-24T09:14:40.057Z,75.6
2024-04-24T09:15:32.178Z,75.6
2024-04-24T09:15:40.110Z,75.5
2024-04-24T09:16:40.130Z,76
2024-04-24T09:17:40.230Z,75.9
2024-04-24T09:18:40.208Z,76.8
2024-04-24T09:19:40.077Z,77.1
2024-04-24T09:20:32.220Z,77.1
2024-04-24T09:20:40.102Z,78.3
2024-04-24T09:21:40.101Z,78.1
2024-04-24T09:22:40.107Z,77.8
2024-04-24T09:23:40.125Z,79.1
2024-04-24T09:24:40.738Z,79.3
2024-04-24T09:25:32.173Z,79.3
2024-04-24T09:26:40.151Z,80.6
2024-04-24T09:27:40.163Z,81.2
2024-04-24T09:28:40.146Z,82.7
2024-04-24T09:29:40.133Z,83.4
2024-04-24T09:30:32.195Z,83.4
2024-04-24T09:30:40.108Z,83.6
2024-04-24T09:31:41.430Z,84.9
2024-04-24T09:32:40.222Z,85.5
2024-04-24T09:33:40.189Z,85.7
2024-04-24T09:34:40.163Z,85.1
2024-04-24T09:35:32.228Z,85.1
2024-04-24T09:35:40.139Z,84.9
2024-04-24T09:36:41.440Z,85.5
2024-04-24T09:37:40.162Z,86.6
2024-04-24T09:38:40.137Z,86.4
2024-04-24T09:39:40.162Z,85.6
2024-04-24T09:40:32.182Z,85.6
2024-04-24T09:40:40.153Z,86.3
2024-04-24T09:41:40.162Z,86.2
2024-04-24T09:42:40.211Z,87
2024-04-24T09:43:40.158Z,87.4
2024-04-24T09:44:40.160Z,87.9
2024-04-24T09:45:32.182Z,87.9
2024-04-24T09:45:40.167Z,88.4
2024-04-24T09:46:40.162Z,88.7
2024-04-24T09:47:40.313Z,88.2
2024-04-24T09:48:40.219Z,87.9
2024-04-24T09:49:40.187Z,87.7
2024-04-24T09:50:32.200Z,87.7
2024-04-24T09:50:40.308Z,86.9
2024-04-24T09:51:40.964Z,87.1
2024-04-24T09:52:40.204Z,86.5
2024-04-24T09:53:40.186Z,86.6
2024-04-24T09:54:40.191Z,87.2
2024-04-24T09:55:32.178Z,87.2
2024-04-24T09:55:40.201Z,87
2024-04-24T09:56:40.204Z,87.6
2024-04-24T09:57:40.263Z,87
2024-04-24T09:58:40.217Z,86.8
2024-04-24T09:59:40.237Z,87.4
2024-04-24T10:00:32.174Z,87.4
2024-04-24T10:00:40.246Z,86.7
2024-04-24T10:01:40.223Z,85.9
2024-04-24T10:03:40.240Z,85.4
2024-04-24T10:04:40.226Z,85.6
2024-04-24T10:05:35.631Z,85.6
2024-04-24T10:05:43.830Z,85.7
2024-04-24T10:06:40.230Z,86.9
2024-04-24T10:07:40.265Z,86.8
2024-04-24T10:08:40.250Z,87
2024-04-24T10:09:40.254Z,87.2
2024-04-24T10:10:32.175Z,87.2
2024-04-24T10:10:40.230Z,86.9
2024-04-24T10:11:40.273Z,88
2024-04-24T10:12:40.291Z,86.6
2024-04-24T10:13:40.280Z,85.7
2024-04-24T10:14:40.272Z,85.8
2024-04-24T10:15:32.182Z,85.8
2024-04-24T10:15:40.257Z,85.6
2024-04-24T10:16:40.264Z,85
2024-04-24T10:17:40.384Z,83.9
2024-04-24T10:18:40.361Z,84.3
2024-04-24T10:19:40.288Z,84
2024-04-24T10:20:32.281Z,84
2024-04-24T10:21:40.276Z,84.4
2024-04-24T10:23:41.812Z,84.5
2024-04-24T10:24:40.297Z,85
2024-04-24T10:25:32.181Z,85
2024-04-24T10:26:40.309Z,85.6
2024-04-24T10:27:40.307Z,84.7
2024-04-24T10:28:40.305Z,84.9
2024-04-24T10:29:40.269Z,85.4
2024-04-24T10:30:32.181Z,85.4
2024-04-24T10:30:40.280Z,85.6
2024-04-24T10:31:40.306Z,84.6
2024-04-24T10:32:40.461Z,84.8
2024-04-24T10:33:40.498Z,85.2
2024-04-24T10:34:40.314Z,84.6
2024-04-24T10:35:32.263Z,84.6
2024-04-24T10:35:40.329Z,83.9
2024-04-24T10:36:40.328Z,85.5
2024-04-24T10:37:40.290Z,85.4
2024-04-24T10:38:40.398Z,84.8
2024-04-24T10:39:40.316Z,84.4
2024-04-24T10:40:32.200Z,84.4
2024-04-24T10:40:40.350Z,84.3
2024-04-24T10:41:40.345Z,84.6
2024-04-24T10:42:40.306Z,84.5
2024-04-24T10:43:40.340Z,84.8
2024-04-24T10:44:40.355Z,84.6
2024-04-24T10:45:32.200Z,84.6
2024-04-24T10:45:41.703Z,85.8
2024-04-24T10:46:40.397Z,85.3
2024-04-24T10:47:40.811Z,85.5
2024-04-24T10:49:40.371Z,86
2024-04-24T10:50:32.290Z,86
2024-04-24T10:51:40.365Z,86
2024-04-24T10:52:40.352Z,87
2024-04-24T10:53:48.286Z,86.7
2024-04-24T10:54:40.377Z,87.2
2024-04-24T10:55:32.169Z,87.2
2024-04-24T10:55:40.388Z,87.8
2024-04-24T10:56:40.695Z,87.6
2024-04-24T10:57:40.348Z,87.4
2024-04-24T10:58:40.386Z,87.3
2024-04-24T10:59:40.416Z,88.2
2024-04-24T11:00:32.202Z,88.2
2024-04-24T11:00:40.417Z,87.4
2024-04-24T11:01:42.935Z,88
2024-04-24T11:02:40.438Z,88.2
2024-04-24T11:03:40.454Z,88.6
2024-04-24T11:04:40.395Z,88.3
2024-04-24T11:05:32.264Z,88.3
2024-04-24T11:05:40.440Z,87.2
2024-04-24T11:06:40.425Z,87.3
2024-04-24T11:07:40.453Z,87.1
2024-04-24T11:08:41.540Z,88
2024-04-24T11:09:40.413Z,87.2
2024-04-24T11:10:32.225Z,87.2
2024-04-24T11:10:40.431Z,86.5
2024-04-24T11:11:40.508Z,86.4
2024-04-24T11:12:40.434Z,86.1
2024-04-24T11:13:40.394Z,85.9
2024-04-24T11:14:40.540Z,86.3
2024-04-24T11:15:32.175Z,86.3
2024-04-24T11:15:41.819Z,86.8
2024-04-24T11:16:40.444Z,87.3
2024-04-24T11:17:40.521Z,86.4
2024-04-24T11:19:40.433Z,87.1
2024-04-24T11:20:32.276Z,87.1
2024-04-24T11:20:40.516Z,86.1
2024-04-24T11:22:40.478Z,86.3
2024-04-24T11:23:40.499Z,85.7
2024-04-24T11:24:41.676Z,86.1
2024-04-24T11:25:39.076Z,86.1
2024-04-24T11:25:45.667Z,86
2024-04-24T11:26:40.517Z,86.6
2024-04-24T11:28:40.471Z,87.2
2024-04-24T11:29:40.640Z,87.3
2024-04-24T11:30:32.186Z,87.3
2024-04-24T11:30:42.634Z,88
2024-04-24T11:31:41.680Z,88.4
2024-04-24T11:32:40.527Z,88
2024-04-24T11:33:40.535Z,87.4
2024-04-24T11:34:40.458Z,87.3
2024-04-24T11:35:32.200Z,87.3
2024-04-24T11:35:40.475Z,86.7
2024-04-24T11:36:40.476Z,86.8
2024-04-24T11:37:40.518Z,86.4
2024-04-24T11:38:40.489Z,85.7
2024-04-24T11:39:40.496Z,86.3
2024-04-24T11:40:32.198Z,86.3
2024-04-24T11:40:40.476Z,86.5
2024-04-24T11:41:40.558Z,86.6
2024-04-24T11:42:40.504Z,87.3
2024-04-24T11:43:40.466Z,87.4
2024-04-24T11:44:40.523Z,86.9
2024-04-24T11:45:32.188Z,86.9
2024-04-24T11:46:40.489Z,86.7
2024-04-24T11:47:40.665Z,87
2024-04-24T11:48:44.193Z,86.5
2024-04-24T11:49:40.636Z,87.4
2024-04-24T11:50:32.217Z,87.4
2024-04-24T11:51:40.531Z,87.9
2024-04-24T11:52:40.562Z,88.4
2024-04-24T11:53:40.539Z,88.7
2024-04-24T11:54:40.545Z,87.7
2024-04-24T11:55:32.172Z,87.7
2024-04-24T11:57:40.617Z,86.7
2024-04-24T11:58:40.562Z,86.6
2024-04-24T11:59:40.634Z,84.8
2024-04-24T12:00:32.195Z,84.8
2024-04-24T12:00:42.203Z,86
2024-04-24T12:01:40.566Z,85.5
2024-04-24T12:02:40.590Z,85.2
2024-04-24T12:03:40.569Z,85.6
2024-04-24T12:04:40.567Z,84.7
2024-04-24T12:05:32.190Z,84.7
2024-04-24T12:05:40.564Z,85.2
2024-04-24T12:06:40.633Z,85.3
2024-04-24T12:07:40.543Z,85.8
2024-04-24T12:08:40.629Z,87.5
2024-04-24T12:10:32.190Z,87.5
2024-04-24T12:10:40.603Z,88.2
2024-04-24T12:11:40.606Z,88.8
2024-04-24T12:12:40.614Z,89.8
2024-04-24T12:13:40.630Z,89
2024-04-24T12:14:40.594Z,89.2
2024-04-24T12:15:32.179Z,89.2
2024-04-24T12:15:40.601Z,89.9
2024-04-24T12:16:40.590Z,90.3
2024-04-24T12:17:40.646Z,89.8
2024-04-24T12:18:40.632Z,88.4
2024-04-24T12:19:40.607Z,87.1
2024-04-24T12:20:32.199Z,87.1
2024-04-24T12:21:40.569Z,86.7
2024-04-24T12:22:40.592Z,86.3
2024-04-24T12:23:40.594Z,85.4
2024-04-24T12:24:40.615Z,83.3
2024-04-24T12:25:32.187Z,83.3
2024-04-24T12:26:40.586Z,81.7
2024-04-24T12:27:40.601Z,81.5
2024-04-24T12:28:40.612Z,80.3
2024-04-24T12:29:40.643Z,79.6
2024-04-24T12:30:32.200Z,79.6
2024-04-24T12:31:43.563Z,76.5
2024-04-24T12:32:40.659Z,76.3
2024-04-24T12:33:40.690Z,74.8
2024-04-24T12:34:40.794Z,74.2
2024-04-24T12:35:32.191Z,74.2
2024-04-24T12:35:40.626Z,73.8
2024-04-24T12:36:40.617Z,74.1
2024-04-24T12:37:40.621Z,73.8
2024-04-24T12:38:40.664Z,71.9
2024-04-24T12:39:40.677Z,72.2
2024-04-24T12:40:32.191Z,72.2
2024-04-24T12:41:40.646Z,71.8
2024-04-24T12:42:40.642Z,73.3
2024-04-24T12:43:40.648Z,73
2024-04-24T12:44:40.659Z,74.3
2024-04-24T12:45:32.211Z,74.3
2024-04-24T12:45:40.627Z,74.1
2024-04-24T12:46:40.649Z,75.4
2024-04-24T12:47:40.776Z,76.3
2024-04-24T12:48:40.990Z,77.4
2024-04-24T12:49:40.701Z,76.6
2024-04-24T12:50:32.215Z,76.6
2024-04-24T12:51:40.690Z,80
2024-04-24T12:53:40.664Z,80.2
2024-04-24T12:54:40.703Z,80.5
2024-04-24T12:55:32.184Z,80.5
2024-04-24T12:56:40.693Z,79.8
2024-04-24T12:57:40.674Z,80
2024-04-24T12:58:40.708Z,80.5
2024-04-24T12:59:40.695Z,80.4
2024-04-24T13:00:32.238Z,80.4
2024-04-24T13:00:40.676Z,80.5
2024-04-24T13:01:40.708Z,80.3
2024-04-24T13:02:40.817Z,79.4
2024-04-24T13:03:40.861Z,78.9
2024-04-24T13:04:42.754Z,77.5
2024-04-24T13:05:32.218Z,77.5
2024-04-24T13:06:40.698Z,77.6
2024-04-24T13:07:40.749Z,76.4
2024-04-24T13:08:40.726Z,77.1
2024-04-24T13:09:40.722Z,77.4
2024-04-24T13:10:32.206Z,77.4
2024-04-24T13:10:40.767Z,77.8
2024-04-24T13:11:40.816Z,78.6
2024-04-24T13:12:40.740Z,75
2024-04-24T13:14:40.761Z,74.3
2024-04-24T13:15:32.183Z,74.3
2024-04-24T13:15:40.749Z,74.4
2024-04-24T13:16:40.746Z,74.9
2024-04-24T13:17:40.888Z,75.1
2024-04-24T13:19:40.822Z,74.9
2024-04-24T13:20:32.259Z,74.9
2024-04-24T13:20:40.755Z,75.1
2024-04-24T13:21:40.759Z,74.9
2024-04-24T13:22:40.750Z,74.6
2024-04-24T13:23:40.793Z,76
2024-04-24T13:24:40.776Z,74.4
2024-04-24T13:25:32.187Z,74.4
2024-04-24T13:26:40.761Z,75.1
2024-04-24T13:27:40.813Z,77.4
2024-04-24T13:28:40.759Z,78
2024-04-24T13:29:40.800Z,76.1
2024-04-24T13:30:32.200Z,76.1
2024-04-24T13:31:40.806Z,74.3
2024-04-24T13:32:40.913Z,73.4
2024-04-24T13:33:40.877Z,73.5
2024-04-24T13:34:40.842Z,74.3
2024-04-24T13:35:32.231Z,74.3
2024-04-24T13:36:40.800Z,74.1
2024-04-24T13:37:40.802Z,75.2
2024-04-24T13:38:40.838Z,75
2024-04-24T13:40:32.212Z,75
2024-04-24T13:40:40.828Z,76.1
2024-04-24T13:41:41.267Z,78.8
2024-04-24T13:43:40.792Z,79.4
2024-04-24T13:44:40.820Z,78.5
2024-04-24T13:45:32.251Z,78.5
2024-04-24T13:45:40.826Z,78.6
2024-04-24T13:46:40.880Z,79.2
2024-04-24T13:47:40.909Z,80
2024-04-24T13:48:40.991Z,79.6
2024-04-24T13:49:40.854Z,77.7
2024-04-24T13:50:32.213Z,77.7
2024-04-24T13:50:44.022Z,73.9
2024-04-24T13:51:40.860Z,71
2024-04-24T13:52:40.869Z,68.4
2024-04-24T13:53:40.890Z,71.2
2024-04-24T13:54:40.874Z,69.5
2024-04-24T13:55:32.188Z,69.5
2024-04-24T13:55:40.874Z,70.2
2024-04-24T13:56:40.925Z,71.1
2024-04-24T13:57:40.846Z,71.8
2024-04-24T13:58:40.871Z,72.8
2024-04-24T13:59:40.846Z,72.9
2024-04-24T14:00:32.201Z,72.9
2024-04-24T14:00:40.917Z,73.6
2024-04-24T14:01:40.917Z,71
2024-04-24T14:02:41.026Z,71.4
2024-04-24T14:03:40.943Z,71.3
2024-04-24T14:04:40.871Z,71.2
2024-04-24T14:05:32.273Z,71.2
2024-04-24T14:05:40.957Z,71.3
2024-04-24T14:07:40.914Z,70.8
2024-04-24T14:08:40.908Z,70.7
2024-04-24T14:09:40.898Z,70.6
2024-04-24T14:10:32.311Z,70.6
2024-04-24T14:10:40.901Z,70.9
2024-04-24T14:11:40.975Z,72
2024-04-24T14:12:40.892Z,71.4
2024-04-24T14:13:40.940Z,72.4
2024-04-24T14:14:40.925Z,71.5
2024-04-24T14:15:32.189Z,71.5
2024-04-24T14:15:40.942Z,69
2024-04-24T14:16:40.999Z,70
2024-04-24T14:17:40.985Z,70.1
2024-04-24T14:18:40.941Z,70.4
2024-04-24T14:19:40.955Z,69.9
2024-04-24T14:20:32.250Z,69.9
2024-04-24T14:20:40.992Z,69.2
2024-04-24T14:21:40.954Z,68.5
2024-04-24T14:22:40.992Z,67.8
2024-04-24T14:24:40.988Z,68.1
2024-04-24T14:25:34.875Z,68.1
2024-04-24T14:26:40.949Z,68.6
2024-04-24T14:27:41.000Z,69.5
2024-04-24T14:28:40.981Z,71.5
2024-04-24T14:29:40.992Z,73.8
2024-04-24T14:30:32.196Z,73.8
2024-04-24T14:30:40.988Z,76.5
2024-04-24T14:31:41.517Z,80.2
2024-04-24T14:32:41.060Z,83
2024-04-24T14:33:41.050Z,85.2
2024-04-24T14:34:41.039Z,87.1
2024-04-24T14:35:32.245Z,87.1
2024-04-24T14:35:41.060Z,89
2024-04-24T14:36:41.004Z,89.5
2024-04-24T14:37:40.995Z,91.2
2024-04-24T14:38:41.032Z,91.8
2024-04-24T14:39:41.000Z,91.7
2024-04-24T14:40:32.200Z,91.7
2024-04-24T14:40:40.985Z,92.1
2024-04-24T14:41:41.027Z,92.7
2024-04-24T14:42:41.008Z,90.4
2024-04-24T14:43:42.070Z,90.6
2024-04-24T14:44:42.913Z,90.4
2024-04-24T14:45:32.195Z,90.4
2024-04-24T14:46:41.043Z,88
2024-04-24T14:47:41.131Z,89.3
2024-04-24T14:48:41.118Z,88.8
2024-04-24T14:49:41.085Z,89.3
2024-04-24T14:50:32.218Z,89.3
2024-04-24T14:50:41.076Z,87.9
2024-04-24T14:51:41.069Z,90.7
2024-04-24T14:52:41.078Z,86.2
2024-04-24T14:53:41.032Z,85.9
2024-04-24T14:54:41.066Z,86.3
2024-04-24T14:55:32.188Z,86.3
2024-04-24T14:55:42.325Z,85.6
2024-04-24T14:56:41.090Z,85.1
2024-04-24T14:57:41.137Z,86
2024-04-24T14:58:41.112Z,86.4
2024-04-24T14:59:41.099Z,86.8
2024-04-24T15:00:32.206Z,86.8
2024-04-24T15:01:41.086Z,87.7
2024-04-24T15:02:41.136Z,87.8
2024-04-24T15:03:41.057Z,88.7
2024-04-24T15:05:32.314Z,88.7
2024-04-24T15:05:41.090Z,87.8
2024-04-24T15:06:41.104Z,87.3
2024-04-24T15:07:42.018Z,88.3
2024-04-24T15:08:41.114Z,88.8
2024-04-24T15:09:41.119Z,87.1
2024-04-24T15:10:32.206Z,87.1
2024-04-24T15:11:41.182Z,87.6
2024-04-24T15:12:41.092Z,88
2024-04-24T15:13:43.261Z,88.2
2024-04-24T15:14:41.079Z,89.2
2024-04-24T15:15:32.183Z,89.2
2024-04-24T15:15:41.106Z,88.8
2024-04-24T15:16:41.105Z,89.7
2024-04-24T15:17:41.154Z,89.2
2024-04-24T15:18:41.156Z,88.6
2024-04-24T15:19:42.270Z,89.1
2024-04-24T15:20:32.352Z,89.1
2024-04-24T15:20:41.095Z,89
2024-04-24T15:21:41.094Z,89.4
2024-04-24T15:22:41.133Z,89.7
2024-04-24T15:23:41.132Z,89.5
2024-04-24T15:24:41.090Z,89.9
2024-04-24T15:25:32.203Z,89.9
2024-04-24T15:25:42.195Z,90.1
2024-04-24T15:26:41.154Z,90.2
2024-04-24T15:27:41.899Z,90.7
2024-04-24T15:28:41.141Z,91
2024-04-24T15:29:41.163Z,92.7
2024-04-24T15:30:32.215Z,92.7
2024-04-24T15:30:41.128Z,92.6
2024-04-24T15:31:41.176Z,96.7
2024-04-24T15:32:41.213Z,95.8
2024-04-24T15:33:42.856Z,94.7
2024-04-24T15:34:41.216Z,95.3
2024-04-24T15:35:32.259Z,95.3